createdAt,value
2019-01-26T08:32:17.436Z,17.00
2019-01-26T08:34:43.761Z,17.00
2019-01-26T08:37:10.148Z,17.00
2019-01-26T08:39:36.544Z,17.00
2019-01-26T08:42:03.042Z,17.00
2019-01-26T08:44:31.249Z,17.00
2019-01-26T08:46:57.537Z,17.10
2019-01-26T08:49:23.902Z,17.10
2019-01-26T08:51:50.371Z,17.10
2019-01-26T08:54:16.727Z,17.10
2019-01-26T08:56:43.038Z,17.10
2019-01-26T08:59:09.403Z,17.10
2019-01-26T09:01:35.747Z,17.10
2019-01-26T09:04:02.113Z,17.10
2019-01-26T09:06:28.842Z,17.20
2019-01-26T09:08:55.240Z,17.20
2019-01-26T09:11:21.570Z,17.20
2019-01-26T09:13:47.938Z,17.10
2019-01-26T09:16:14.259Z,17.20
2019-01-26T09:18:40.641Z,17.20
2019-01-26T09:21:07.968Z,17.20
2019-01-26T09:23:34.232Z,17.20
2019-01-26T09:26:00.563Z,17.20
2019-01-26T09:28:26.893Z,17.30
2019-01-26T09:30:53.257Z,17.30
2019-01-26T09:33:19.742Z,17.30
2019-01-26T09:35:46.117Z,17.30
2019-01-26T09:38:12.453Z,17.30
2019-01-26T09:40:38.794Z,17.30
2019-01-26T09:43:05.127Z,17.30
2019-01-26T09:45:31.462Z,17.30
2019-01-26T09:47:57.802Z,17.30
2019-01-26T09:50:26.051Z,17.30
2019-01-26T09:52:52.385Z,17.30
2019-01-26T09:55:19.815Z,17.30
2019-01-26T09:57:46.196Z,17.30
2019-01-26T10:00:12.531Z,17.40
2019-01-26T10:02:38.855Z,17.30
2019-01-26T10:05:05.208Z,17.40
2019-01-26T10:07:33.399Z,17.40
2019-01-26T10:09:59.698Z,17.40
2019-01-26T10:12:26.039Z,17.40
2019-01-26T10:14:52.396Z,17.40
2019-01-26T10:17:18.730Z,17.40
2019-01-26T10:19:45.166Z,17.40
2019-01-26T10:22:11.845Z,17.40
2019-01-26T10:24:38.186Z,17.40
2019-01-26T10:27:04.537Z,17.40
2019-01-26T10:29:30.861Z,17.40
2019-01-26T10:31:57.192Z,17.50
2019-01-26T10:34:23.520Z,17.40
2019-01-26T10:36:49.851Z,17.50
2019-01-26T10:39:16.201Z,17.50
2019-01-26T10:41:43.758Z,17.50
2019-01-26T10:44:10.065Z,17.50
2019-01-26T10:46:36.382Z,17.50
2019-01-26T10:49:02.752Z,17.50
2019-01-26T10:51:29.081Z,17.50
2019-01-26T10:53:55.517Z,17.50
2019-01-26T10:56:21.870Z,17.50
2019-01-26T10:58:48.230Z,17.50
2019-01-26T11:01:14.554Z,17.50
2019-01-26T11:03:40.918Z,17.50
2019-01-26T11:06:07.251Z,17.50
2019-01-26T11:08:33.648Z,17.50
2019-01-26T11:10:59.991Z,17.60
2019-01-26T11:13:27.355Z,17.60
2019-01-26T11:15:53.701Z,17.60
2019-01-26T11:18:20.013Z,17.60
2019-01-26T11:20:46.378Z,17.60
2019-01-26T11:23:12.734Z,17.60
2019-01-26T11:25:39.125Z,17.60
2019-01-26T11:28:05.466Z,17.60
2019-01-26T11:30:31.822Z,17.60
2019-01-26T11:32:58.267Z,17.60
2019-01-26T11:35:24.690Z,17.60
2019-01-26T11:37:51.149Z,17.60
2019-01-26T11:40:19.274Z,17.70
2019-01-26T11:42:47.354Z,17.60
2019-01-26T11:45:14.031Z,17.70
2019-01-26T11:47:40.571Z,17.70
2019-01-26T11:50:07.986Z,17.70
2019-01-26T11:52:34.297Z,17.70
2019-01-26T11:55:01.724Z,17.70
2019-01-26T11:57:29.477Z,17.70
2019-01-26T11:59:55.817Z,17.70
2019-01-26T12:02:22.384Z,17.70
2019-01-26T12:04:48.794Z,17.70
2019-01-26T12:07:15.129Z,17.70
2019-01-26T12:09:43.916Z,17.70
2019-01-26T12:12:09.585Z,17.70
2019-01-26T12:14:37.060Z,17.70
2019-01-26T12:17:06.120Z,17.70
2019-01-26T12:19:32.465Z,17.70
2019-01-26T12:21:58.909Z,17.70
2019-01-26T12:24:25.231Z,17.70
2019-01-26T12:26:52.560Z,17.70
2019-01-26T12:29:18.860Z,17.80
2019-01-26T12:31:45.286Z,17.70
2019-01-26T12:34:13.264Z,17.70
2019-01-26T12:36:39.725Z,17.70
2019-01-26T12:39:06.044Z,17.70
2019-01-26T12:41:33.559Z,17.70
2019-01-26T12:44:02.087Z,17.70
2019-01-26T12:46:29.466Z,17.70
2019-01-26T12:48:55.794Z,17.70
2019-01-26T12:51:22.215Z,17.80
2019-01-26T12:53:48.546Z,17.70
2019-01-26T12:56:14.914Z,17.70
2019-01-26T12:58:41.329Z,17.70
2019-01-26T13:01:07.698Z,17.70
2019-01-26T13:03:34.065Z,17.80
2019-01-26T13:06:00.394Z,17.70
2019-01-26T13:08:26.755Z,17.70
2019-01-26T13:10:53.283Z,17.70
2019-01-26T13:13:19.614Z,17.80
2019-01-26T13:15:45.974Z,17.80
2019-01-26T13:18:12.386Z,17.80
2019-01-26T13:20:38.691Z,17.80
2019-01-26T13:23:05.062Z,17.80
2019-01-26T13:25:31.405Z,17.80
2019-01-26T13:27:58.768Z,17.80
2019-01-26T13:30:26.936Z,17.80
2019-01-26T13:32:53.072Z,17.80
2019-01-26T13:35:19.382Z,17.80
2019-01-26T13:37:45.715Z,17.80
2019-01-26T13:42:50.409Z,17.80
2019-01-26T13:45:18.567Z,17.80
2019-01-26T13:47:44.952Z,17.80
2019-01-26T13:50:11.381Z,17.80
2019-01-26T13:52:37.729Z,17.80
2019-01-26T13:55:04.123Z,17.80
2019-01-26T13:57:30.477Z,17.80
2019-01-26T13:59:56.808Z,17.80
2019-01-26T14:02:23.169Z,17.80
2019-01-26T14:04:49.506Z,17.80
2019-01-26T14:07:15.855Z,17.80
2019-01-26T14:09:42.206Z,17.80
2019-01-26T14:12:08.557Z,17.80
2019-01-26T14:14:34.895Z,17.80
2019-01-26T14:17:01.326Z,17.80
2019-01-26T14:19:27.712Z,17.80
2019-01-26T14:21:54.094Z,17.80
2019-01-26T14:24:20.622Z,17.80
2019-01-26T14:26:49.834Z,17.80
2019-01-26T14:29:14.943Z,17.80
2019-01-26T14:31:41.274Z,17.80
2019-01-26T14:34:07.594Z,17.80
2019-01-26T14:36:33.941Z,17.80
2019-01-26T14:39:00.281Z,17.80
2019-01-26T14:41:26.621Z,17.80
2019-01-26T14:43:52.990Z,17.80
2019-01-26T14:46:19.339Z,17.80
2019-01-26T14:48:45.706Z,17.80
2019-01-26T14:51:12.172Z,17.80
2019-01-26T14:53:39.507Z,17.80
2019-01-26T14:56:06.128Z,17.80
2019-01-26T14:58:32.751Z,17.80
2019-01-26T15:00:59.317Z,17.80
2019-01-26T15:03:25.931Z,17.80
2019-01-26T15:05:52.341Z,17.80
2019-01-26T15:08:18.685Z,17.80
2019-01-26T15:10:45.031Z,17.80
2019-01-26T15:13:13.233Z,17.80
2019-01-26T15:15:39.600Z,17.80
2019-01-26T15:18:05.966Z,17.80
2019-01-26T15:20:32.317Z,17.80
2019-01-26T15:22:58.689Z,17.80
2019-01-26T15:25:25.025Z,17.80
2019-01-26T15:27:51.409Z,17.80
2019-01-26T15:30:17.718Z,17.80
2019-01-26T15:32:44.046Z,17.80
2019-01-26T15:35:10.451Z,17.80
2019-01-26T15:37:37.752Z,17.80
2019-01-26T15:40:04.143Z,17.80
2019-01-26T15:42:32.340Z,17.80
2019-01-26T15:44:58.631Z,17.80
2019-01-26T15:47:24.975Z,17.80
2019-01-26T15:49:51.330Z,17.80
2019-01-26T15:52:17.674Z,17.80
2019-01-26T15:54:44.017Z,17.80
2019-01-26T15:57:10.365Z,17.80
2019-01-26T15:59:36.699Z,17.80
2019-01-26T16:02:03.104Z,17.80
2019-01-26T16:04:29.445Z,17.80
2019-01-26T16:06:56.835Z,17.80
2019-01-26T16:09:23.259Z,17.80
2019-01-26T16:11:50.571Z,17.80
2019-01-26T16:14:16.831Z,17.80
2019-01-26T16:16:43.174Z,17.80
2019-01-26T16:19:09.502Z,17.80
2019-01-26T16:21:35.849Z,17.80
2019-01-26T16:24:03.184Z,17.80
2019-01-26T16:26:29.585Z,17.80
2019-01-26T16:28:55.921Z,17.80
2019-01-26T16:31:22.305Z,17.80
2019-01-26T16:33:48.640Z,17.90
2019-01-26T16:36:15.011Z,17.80
2019-01-26T16:38:42.773Z,17.80
2019-01-26T16:41:09.156Z,17.80
2019-01-26T16:43:35.557Z,17.80
2019-01-26T16:46:03.737Z,17.80
2019-01-26T16:48:29.845Z,17.80
2019-01-26T16:50:56.175Z,17.80
2019-01-26T16:53:22.566Z,17.80
2019-01-26T16:55:50.638Z,17.80
2019-01-26T16:58:16.977Z,17.90
2019-01-26T17:00:43.323Z,17.80
2019-01-26T17:03:09.668Z,17.80
2019-01-26T17:05:36.007Z,17.80
2019-01-26T17:08:02.335Z,17.80
2019-01-26T17:13:16.360Z,17.80
2019-01-26T17:15:42.710Z,17.90
2019-01-26T17:18:13.700Z,17.80
2019-01-26T17:20:37.335Z,17.90
2019-01-26T17:23:03.682Z,17.90
2019-01-26T17:25:30.035Z,17.90
2019-01-26T17:27:56.424Z,17.90
2019-01-26T17:30:22.785Z,17.90
2019-01-26T17:32:49.125Z,17.90
2019-01-26T17:35:17.337Z,17.90
2019-01-26T17:37:43.615Z,17.90
2019-01-26T17:40:09.995Z,17.90
2019-01-26T17:42:36.331Z,17.90
2019-01-26T17:45:02.667Z,17.90
2019-01-26T17:47:29.033Z,17.90
2019-01-26T17:49:55.647Z,17.90
2019-01-26T17:52:21.956Z,17.90
2019-01-26T17:54:48.266Z,17.90
2019-01-26T17:57:14.640Z,17.90
2019-01-26T17:59:40.981Z,17.90
2019-01-26T18:02:07.322Z,17.90
2019-01-26T18:04:33.665Z,18.00
2019-01-26T18:07:00.042Z,17.90
2019-01-26T18:09:26.354Z,18.00
2019-01-26T18:11:54.458Z,17.90
2019-01-26T18:14:20.825Z,17.90
2019-01-26T18:16:48.142Z,18.00
2019-01-26T18:19:14.530Z,17.90
2019-01-26T18:21:40.976Z,17.90
2019-01-26T18:24:07.616Z,17.90
2019-01-26T18:26:33.950Z,18.00
2019-01-26T18:29:01.280Z,18.00
2019-01-26T18:31:27.566Z,18.00
2019-01-26T18:33:53.959Z,18.00
2019-01-26T18:36:20.282Z,18.00
2019-01-26T18:38:46.642Z,18.00
2019-01-26T18:41:13.003Z,18.00
2019-01-26T18:43:40.319Z,18.00
2019-01-26T18:46:06.713Z,18.00
2019-01-26T18:48:34.800Z,18.00
2019-01-26T18:51:01.127Z,18.00
2019-01-26T18:53:27.459Z,18.00
2019-01-26T18:55:53.802Z,18.00
2019-01-26T18:58:20.130Z,18.00
2019-01-26T19:00:46.489Z,18.00
2019-01-26T19:03:12.845Z,18.00
2019-01-26T19:05:39.245Z,18.00
2019-01-26T19:08:05.598Z,18.00
2019-01-26T19:10:31.926Z,18.00
2019-01-26T19:12:58.288Z,18.00
2019-01-26T19:15:24.608Z,18.00
2019-01-26T19:17:50.998Z,18.00
2019-01-26T19:20:17.333Z,18.00
2019-01-26T19:22:43.678Z,18.00
2019-01-26T19:25:10.040Z,18.00
2019-01-26T19:27:36.350Z,18.00
2019-01-26T19:30:02.800Z,18.00
2019-01-26T19:32:29.213Z,18.00
2019-01-26T19:34:55.691Z,18.00
2019-01-26T19:37:22.017Z,18.10
2019-01-26T19:39:48.379Z,18.00
2019-01-26T19:42:14.723Z,18.00
2019-01-26T19:44:41.083Z,18.00
2019-01-26T19:47:07.410Z,18.00
2019-01-26T19:49:34.795Z,18.00
2019-01-26T19:52:01.128Z,18.00
2019-01-26T19:54:29.532Z,18.00
2019-01-26T19:56:56.231Z,18.00
2019-01-26T19:59:24.315Z,18.00
2019-01-26T20:01:52.429Z,18.10
2019-01-26T20:04:20.569Z,18.10
2019-01-26T20:06:48.716Z,18.10
2019-01-26T20:09:14.966Z,18.10
2019-01-26T20:11:41.298Z,18.10
2019-01-26T20:14:07.632Z,18.10
2019-01-26T20:16:36.509Z,18.10
2019-01-26T20:19:02.027Z,18.10
2019-01-26T20:21:30.098Z,18.10
2019-01-26T20:23:56.573Z,18.10
2019-01-26T20:26:23.949Z,18.10
2019-01-26T20:28:52.062Z,18.10
2019-01-26T20:31:18.370Z,18.10
2019-01-26T20:33:44.740Z,18.10
2019-01-26T20:36:11.411Z,18.10
2019-01-26T20:38:37.874Z,18.10
2019-01-26T20:41:04.665Z,18.10
2019-01-26T20:43:31.010Z,18.10
2019-01-26T20:45:57.376Z,18.10
2019-01-26T20:48:25.470Z,18.10
2019-01-26T20:50:51.825Z,18.10
2019-01-26T20:53:18.166Z,18.10
2019-01-26T20:55:44.502Z,18.10
2019-01-26T20:58:10.823Z,18.10
2019-01-26T21:00:37.176Z,18.10
2019-01-26T21:03:03.502Z,18.10
2019-01-26T21:05:29.822Z,18.20
2019-01-26T21:07:56.197Z,18.10
2019-01-26T21:10:22.541Z,18.20
2019-01-26T21:12:51.904Z,18.20
2019-01-26T21:15:18.250Z,18.20
2019-01-26T21:17:44.653Z,18.20
2019-01-26T21:20:11.013Z,18.20
2019-01-26T21:22:37.367Z,18.20
2019-01-26T21:25:03.749Z,18.20
2019-01-26T21:27:30.075Z,18.20
2019-01-26T21:29:58.202Z,18.20
2019-01-26T21:32:24.481Z,18.20
2019-01-26T21:34:50.810Z,18.20
2019-01-26T21:37:17.153Z,18.20
2019-01-26T21:39:43.533Z,18.20
2019-01-26T21:42:09.878Z,18.20
2019-01-26T21:44:36.237Z,18.20
2019-01-26T21:47:02.558Z,18.20
2019-01-26T21:49:28.890Z,18.20
2019-01-26T21:51:56.992Z,18.20
2019-01-26T21:54:23.307Z,18.20
2019-01-26T21:56:50.702Z,18.20
2019-01-26T21:59:17.179Z,18.30
2019-01-26T22:01:43.542Z,18.20
2019-01-26T22:04:09.869Z,18.30
2019-01-26T22:06:36.237Z,18.30
2019-01-26T22:09:02.672Z,18.30
2019-01-26T22:11:29.053Z,18.30
2019-01-26T22:13:55.398Z,18.30
2019-01-26T22:16:21.731Z,18.30
2019-01-26T22:18:49.109Z,18.30
2019-01-26T22:21:15.497Z,18.30
2019-01-26T22:23:41.922Z,18.30
2019-01-26T22:26:10.066Z,18.30
2019-01-26T22:28:36.433Z,18.30
2019-01-26T22:31:02.808Z,18.30
2019-01-26T22:33:29.162Z,18.30
2019-01-26T22:35:55.550Z,18.30
2019-01-26T22:38:23.735Z,18.30
2019-01-26T22:40:50.041Z,18.30
2019-01-26T22:43:16.426Z,18.30
2019-01-26T22:45:43.019Z,18.30
2019-01-26T22:48:09.376Z,18.30
2019-01-26T22:50:35.722Z,18.30
2019-01-26T22:53:02.066Z,18.30
2019-01-26T22:55:28.540Z,18.30
2019-01-26T22:57:54.886Z,18.30
2019-01-26T23:00:21.381Z,18.30
2019-01-26T23:02:48.737Z,18.40
2019-01-26T23:05:17.169Z,18.30
2019-01-26T23:07:43.494Z,18.30
2019-01-26T23:10:10.916Z,18.30
2019-01-26T23:12:37.303Z,18.40
2019-01-26T23:15:03.810Z,18.40
2019-01-26T23:17:31.895Z,18.40
